SCAR METAR and TAF weather

Enter ICAO airport designator
Station Type Date Time Source
SCAR METAR 2022/05/24 11:00 UTC NOAA

SCAR 241100Z 02004KT 9999 OVC023 17/12 Q1016


Station Type Date Time Source
SCAR Decoded METAR 2022/05/24 11:00 UTC NOAA

Arica, Chile (SCAR) 18-20S 070-20W 58M
May 24, 2022 - 07:00 AM EDT / 2022.05.24 1100 UTC
Wind: from the NNE (020 degrees) at 5 MPH (4 KT):0
Visibility: greater than 7 mile(s):0
Sky conditions: overcast
Temperature: 62 F (17 C)
Dew Point: 53 F (12 C)
Relative Humidity: 72%
Pressure (altimeter): 30.00 in. Hg (1016 hPa)
ob: SCAR 241100Z 02004KT 9999 OVC023 17/12 Q1016
cycle: 11

Station Type Date Time Source
SCAR TAF 2022/05/24 12:03 UTC NOAA

TAF TAF SCAR 241015Z 2412/2512 34004KT 9999 OVC025 TX19/2418Z TN17/2510Z
BECMG 2416/2418 21010KT CAVOK
BECMG 2422/2500 19004KT OVC025
BECMG 2504/2506 04004KT

Example: see airport list